Upperville, New York
Current Conditions -  °F | °C
As of 7:35 AM on Friday 21 Nov 2014 (Local Time) from KN03 Reporting Station
Light Snow Light Snow  
Wind Chill: 13°   Ceiling: 2200
Heat Index: 21°   Visibility: 7mi
Dew Point: 18°   Wind: 7mph
Humidity: 86%   Direction: 250°WSW
Pressure: 30.15"   Gusts: NA
Location:  42.6914°N, 75.6351°W
Report Text: KN03 211235Z AUTO 25006KT 7SM -SN BKN022 OVC038 M06/M08 A3015 RMK AO2
Loading
Personal Weather Stations






























Interactive Weather Map New forecast layout! Learn more

10-Day Weather Forecast

Advertisements
Track Severe Weather on mobile